sensor_id;sensor_type;location;lat;lon;timestamp;P1;durP1;ratioP1;P2;durP2;ratioP2
37535;SDS011;23379;51.554;6.736;2024-03-23T00:53:02;13.43;;;3.60;;
37535;SDS011;23379;51.554;6.736;2024-03-23T00:55:28;8.65;;;2.95;;
37535;SDS011;23379;51.554;6.736;2024-03-23T00:57:53;9.18;;;2.88;;
37535;SDS011;23379;51.554;6.736;2024-03-23T01:00:18;8.18;;;2.88;;
37535;SDS011;23379;51.554;6.736;2024-03-23T01:02:43;9.00;;;3.67;;
37535;SDS011;23379;51.554;6.736;2024-03-23T01:05:09;10.80;;;3.33;;
37535;SDS011;23379;51.554;6.736;2024-03-23T01:07:34;14.63;;;3.10;;
37535;SDS011;23379;51.554;6.736;2024-03-23T01:09:59;15.00;;;2.65;;
37535;SDS011;23379;51.554;6.736;2024-03-23T01:12:25;6.85;;;2.60;;
37535;SDS011;23379;51.554;6.736;2024-03-23T01:14:50;8.65;;;3.38;;
37535;SDS011;23379;51.554;6.736;2024-03-23T01:17:15;21.92;;;4.90;;
37535;SDS011;23379;51.554;6.736;2024-03-23T01:19:41;9.13;;;2.67;;
37535;SDS011;23379;51.554;6.736;2024-03-23T01:22:06;11.32;;;3.22;;
37535;SDS011;23379;51.554;6.736;2024-03-23T01:24:32;10.80;;;3.03;;
37535;SDS011;23379;51.554;6.736;2024-03-23T01:26:58;7.10;;;2.30;;
37535;SDS011;23379;51.554;6.736;2024-03-23T01:29:23;6.57;;;2.70;;
37535;SDS011;23379;51.554;6.736;2024-03-23T01:31:48;4.68;;;2.35;;
37535;SDS011;23379;51.554;6.736;2024-03-23T01:34:14;7.65;;;2.58;;
37535;SDS011;23379;51.554;6.736;2024-03-23T01:36:39;10.40;;;2.60;;
37535;SDS011;23379;51.554;6.736;2024-03-23T01:39:05;12.82;;;2.70;;
37535;SDS011;23379;51.554;6.736;2024-03-23T01:41:30;9.60;;;2.83;;
37535;SDS011;23379;51.554;6.736;2024-03-23T01:43:55;11.10;;;2.55;;
37535;SDS011;23379;51.554;6.736;2024-03-23T01:46:21;7.78;;;2.60;;
37535;SDS011;23379;51.554;6.736;2024-03-23T01:48:47;8.20;;;2.50;;
37535;SDS011;23379;51.554;6.736;2024-03-23T01:51:13;7.60;;;2.30;;
37535;SDS011;23379;51.554;6.736;2024-03-23T01:53:38;7.07;;;2.88;;
37535;SDS011;23379;51.554;6.736;2024-03-23T01:56:04;10.70;;;2.60;;
37535;SDS011;23379;51.554;6.736;2024-03-23T01:58:30;12.20;;;3.20;;
37535;SDS011;23379;51.554;6.736;2024-03-23T02:00:57;8.63;;;2.60;;
37535;SDS011;23379;51.554;6.736;2024-03-23T02:05:51;7.95;;;3.08;;
37535;SDS011;23379;51.554;6.736;2024-03-23T02:08:18;15.75;;;3.30;;
37535;SDS011;23379;51.554;6.736;2024-03-23T02:10:45;7.80;;;2.55;;
37535;SDS011;23379;51.554;6.736;2024-03-23T02:13:10;8.90;;;3.10;;
37535;SDS011;23379;51.554;6.736;2024-03-23T02:15:36;6.90;;;2.83;;
37535;SDS011;23379;51.554;6.736;2024-03-23T02:18:01;14.57;;;2.80;;
37535;SDS011;23379;51.554;6.736;2024-03-23T02:20:26;7.60;;;3.15;;
37535;SDS011;23379;51.554;6.736;2024-03-23T02:22:53;14.20;;;3.13;;
37535;SDS011;23379;51.554;6.736;2024-03-23T02:25:18;10.52;;;2.78;;
37535;SDS011;23379;51.554;6.736;2024-03-23T02:27:44;11.95;;;3.08;;
37535;SDS011;23379;51.554;6.736;2024-03-23T02:30:09;10.75;;;2.65;;
37535;SDS011;23379;51.554;6.736;2024-03-23T02:32:35;6.78;;;2.47;;
37535;SDS011;23379;51.554;6.736;2024-03-23T02:35:00;12.82;;;2.90;;
37535;SDS011;23379;51.554;6.736;2024-03-23T02:37:26;6.45;;;2.58;;
37535;SDS011;23379;51.554;6.736;2024-03-23T02:39:51;8.68;;;3.03;;
37535;SDS011;23379;51.554;6.736;2024-03-23T02:42:16;7.05;;;2.95;;
37535;SDS011;23379;51.554;6.736;2024-03-23T02:44:42;11.38;;;2.80;;
37535;SDS011;23379;51.554;6.736;2024-03-23T02:47:09;9.88;;;3.13;;
37535;SDS011;23379;51.554;6.736;2024-03-23T02:49:35;14.27;;;3.25;;
37535;SDS011;23379;51.554;6.736;2024-03-23T02:52:00;7.85;;;2.53;;
37535;SDS011;23379;51.554;6.736;2024-03-23T02:54:26;9.25;;;2.65;;
37535;SDS011;23379;51.554;6.736;2024-03-23T02:56:51;8.55;;;2.65;;
37535;SDS011;23379;51.554;6.736;2024-03-23T02:59:16;12.55;;;3.15;;
37535;SDS011;23379;51.554;6.736;2024-03-23T03:01:42;4.78;;;2.50;;
37535;SDS011;23379;51.554;6.736;2024-03-23T03:04:07;12.68;;;3.08;;
37535;SDS011;23379;51.554;6.736;2024-03-23T03:06:32;10.98;;;3.25;;
37535;SDS011;23379;51.554;6.736;2024-03-23T03:08:58;14.65;;;3.35;;
37535;SDS011;23379;51.554;6.736;2024-03-23T03:11:23;9.45;;;3.05;;
37535;SDS011;23379;51.554;6.736;2024-03-23T03:13:48;12.73;;;3.00;;
37535;SDS011;23379;51.554;6.736;2024-03-23T03:16:14;14.20;;;3.33;;
37535;SDS011;23379;51.554;6.736;2024-03-23T03:18:39;9.50;;;2.85;;
37535;SDS011;23379;51.554;6.736;2024-03-23T03:21:08;10.05;;;3.30;;
37535;SDS011;23379;51.554;6.736;2024-03-23T03:23:36;12.27;;;3.38;;
37535;SDS011;23379;51.554;6.736;2024-03-23T03:26:02;14.50;;;3.05;;
37535;SDS011;23379;51.554;6.736;2024-03-23T03:28:28;14.63;;;2.67;;
37535;SDS011;23379;51.554;6.736;2024-03-23T03:30:55;9.95;;;3.08;;
37535;SDS011;23379;51.554;6.736;2024-03-23T03:33:21;10.82;;;2.90;;
37535;SDS011;23379;51.554;6.736;2024-03-23T03:35:47;17.92;;;2.83;;
37535;SDS011;23379;51.554;6.736;2024-03-23T03:38:12;10.50;;;3.03;;
37535;SDS011;23379;51.554;6.736;2024-03-23T03:40:38;17.58;;;3.28;;
37535;SDS011;23379;51.554;6.736;2024-03-23T03:43:03;5.90;;;2.83;;
37535;SDS011;23379;51.554;6.736;2024-03-23T03:45:28;10.05;;;3.47;;
37535;SDS011;23379;51.554;6.736;2024-03-23T03:47:54;12.93;;;3.00;;
37535;SDS011;23379;51.554;6.736;2024-03-23T03:50:19;11.00;;;3.38;;
37535;SDS011;23379;51.554;6.736;2024-03-23T03:52:46;11.13;;;3.25;;
37535;SDS011;23379;51.554;6.736;2024-03-23T03:55:15;12.23;;;3.13;;
37535;SDS011;23379;51.554;6.736;2024-03-23T03:57:41;12.68;;;2.85;;
37535;SDS011;23379;51.554;6.736;2024-03-23T04:00:07;16.38;;;3.55;;
37535;SDS011;23379;51.554;6.736;2024-03-23T04:02:36;13.27;;;3.47;;
37535;SDS011;23379;51.554;6.736;2024-03-23T04:05:04;8.45;;;3.30;;
37535;SDS011;23379;51.554;6.736;2024-03-23T04:07:30;8.90;;;3.05;;
37535;SDS011;23379;51.554;6.736;2024-03-23T04:09:56;9.77;;;3.08;;
37535;SDS011;23379;51.554;6.736;2024-03-23T04:12:21;13.70;;;2.90;;
37535;SDS011;23379;51.554;6.736;2024-03-23T04:14:46;14.00;;;3.35;;
37535;SDS011;23379;51.554;6.736;2024-03-23T04:17:12;14.38;;;3.70;;
37535;SDS011;23379;51.554;6.736;2024-03-23T04:19:37;11.15;;;3.78;;
37535;SDS011;23379;51.554;6.736;2024-03-23T04:22:02;9.38;;;3.50;;
37535;SDS011;23379;51.554;6.736;2024-03-23T04:24:28;9.63;;;3.65;;
37535;SDS011;23379;51.554;6.736;2024-03-23T04:26:54;10.88;;;3.10;;
37535;SDS011;23379;51.554;6.736;2024-03-23T04:29:19;13.02;;;3.47;;
37535;SDS011;23379;51.554;6.736;2024-03-23T04:31:45;7.25;;;3.35;;
37535;SDS011;23379;51.554;6.736;2024-03-23T04:34:10;8.93;;;3.42;;
37535;SDS011;23379;51.554;6.736;2024-03-23T04:36:36;8.88;;;3.90;;
37535;SDS011;23379;51.554;6.736;2024-03-23T04:39:01;11.35;;;3.83;;
37535;SDS011;23379;51.554;6.736;2024-03-23T04:41:27;12.90;;;3.20;;
37535;SDS011;23379;51.554;6.736;2024-03-23T04:43:53;13.52;;;3.72;;
37535;SDS011;23379;51.554;6.736;2024-03-23T04:46:18;18.85;;;3.85;;
37535;SDS011;23379;51.554;6.736;2024-03-23T04:48:43;14.50;;;4.35;;
37535;SDS011;23379;51.554;6.736;2024-03-23T04:51:09;13.25;;;3.72;;
37535;SDS011;23379;51.554;6.736;2024-03-23T04:53:37;9.32;;;4.28;;
37535;SDS011;23379;51.554;6.736;2024-03-23T04:56:02;9.20;;;4.03;;
37535;SDS011;23379;51.554;6.736;2024-03-23T04:58:29;15.20;;;4.30;;
37535;SDS011;23379;51.554;6.736;2024-03-23T05:00:55;14.85;;;4.70;;
37535;SDS011;23379;51.554;6.736;2024-03-23T05:03:21;12.20;;;4.13;;
37535;SDS011;23379;51.554;6.736;2024-03-23T05:05:47;16.67;;;4.38;;
37535;SDS011;23379;51.554;6.736;2024-03-23T05:08:15;12.68;;;4.28;;
37535;SDS011;23379;51.554;6.736;2024-03-23T05:10:42;16.88;;;5.10;;
37535;SDS011;23379;51.554;6.736;2024-03-23T05:13:07;13.48;;;4.65;;
37535;SDS011;23379;51.554;6.736;2024-03-23T05:15:33;10.30;;;4.28;;
37535;SDS011;23379;51.554;6.736;2024-03-23T05:17:59;14.30;;;5.55;;
37535;SDS011;23379;51.554;6.736;2024-03-23T05:20:24;19.13;;;5.63;;
37535;SDS011;23379;51.554;6.736;2024-03-23T05:22:49;15.27;;;5.75;;
37535;SDS011;23379;51.554;6.736;2024-03-23T05:25:15;9.93;;;4.78;;
37535;SDS011;23379;51.554;6.736;2024-03-23T05:27:41;19.60;;;5.32;;
37535;SDS011;23379;51.554;6.736;2024-03-23T05:30:07;22.77;;;5.15;;
37535;SDS011;23379;51.554;6.736;2024-03-23T05:32:34;17.45;;;5.18;;
37535;SDS011;23379;51.554;6.736;2024-03-23T05:34:59;12.65;;;6.15;;
37535;SDS011;23379;51.554;6.736;2024-03-23T05:37:24;15.35;;;5.72;;
37535;SDS011;23379;51.554;6.736;2024-03-23T05:39:50;10.57;;;5.20;;
37535;SDS011;23379;51.554;6.736;2024-03-23T05:42:18;17.05;;;5.38;;
37535;SDS011;23379;51.554;6.736;2024-03-23T05:44:44;18.17;;;5.63;;
37535;SDS011;23379;51.554;6.736;2024-03-23T05:47:10;14.77;;;5.57;;
37535;SDS011;23379;51.554;6.736;2024-03-23T05:49:37;16.88;;;5.18;;
37535;SDS011;23379;51.554;6.736;2024-03-23T05:52:03;11.40;;;5.03;;
37535;SDS011;23379;51.554;6.736;2024-03-23T05:54:29;10.88;;;4.65;;
37535;SDS011;23379;51.554;6.736;2024-03-23T05:56:55;14.85;;;5.22;;
37535;SDS011;23379;51.554;6.736;2024-03-23T05:59:20;11.40;;;5.20;;
37535;SDS011;23379;51.554;6.736;2024-03-23T06:01:46;13.77;;;5.65;;
37535;SDS011;23379;51.554;6.736;2024-03-23T06:04:12;21.45;;;6.05;;
37535;SDS011;23379;51.554;6.736;2024-03-23T06:06:38;11.63;;;5.20;;
37535;SDS011;23379;51.554;6.736;2024-03-23T06:09:04;10.90;;;4.72;;
37535;SDS011;23379;51.554;6.736;2024-03-23T06:11:30;18.73;;;4.60;;
37535;SDS011;23379;51.554;6.736;2024-03-23T06:13:55;11.00;;;4.90;;
37535;SDS011;23379;51.554;6.736;2024-03-23T06:16:21;16.63;;;4.88;;
37535;SDS011;23379;51.554;6.736;2024-03-23T06:18:50;13.57;;;5.03;;
37535;SDS011;23379;51.554;6.736;2024-03-23T06:21:16;14.35;;;5.22;;
37535;SDS011;23379;51.554;6.736;2024-03-23T06:23:42;12.15;;;4.60;;
37535;SDS011;23379;51.554;6.736;2024-03-23T06:26:07;15.10;;;4.78;;
37535;SDS011;23379;51.554;6.736;2024-03-23T06:28:33;14.20;;;4.90;;
37535;SDS011;23379;51.554;6.736;2024-03-23T06:30:59;14.60;;;5.05;;
37535;SDS011;23379;51.554;6.736;2024-03-23T06:33:24;13.45;;;4.68;;
37535;SDS011;23379;51.554;6.736;2024-03-23T06:35:50;17.27;;;5.45;;
37535;SDS011;23379;51.554;6.736;2024-03-23T06:38:17;17.25;;;4.95;;
37535;SDS011;23379;51.554;6.736;2024-03-23T06:40:43;14.20;;;5.28;;
37535;SDS011;23379;51.554;6.736;2024-03-23T06:43:12;15.38;;;4.85;;
37535;SDS011;23379;51.554;6.736;2024-03-23T06:45:38;11.85;;;4.80;;
37535;SDS011;23379;51.554;6.736;2024-03-23T06:48:04;13.20;;;4.75;;
37535;SDS011;23379;51.554;6.736;2024-03-23T06:50:32;11.23;;;5.35;;
37535;SDS011;23379;51.554;6.736;2024-03-23T06:52:58;15.95;;;5.75;;
37535;SDS011;23379;51.554;6.736;2024-03-23T06:55:24;9.52;;;5.38;;
37535;SDS011;23379;51.554;6.736;2024-03-23T06:57:51;12.02;;;5.07;;
37535;SDS011;23379;51.554;6.736;2024-03-23T07:00:17;9.50;;;5.60;;
37535;SDS011;23379;51.554;6.736;2024-03-23T07:02:42;13.20;;;5.45;;
37535;SDS011;23379;51.554;6.736;2024-03-23T07:05:09;17.08;;;6.03;;
37535;SDS011;23379;51.554;6.736;2024-03-23T07:07:34;25.63;;;6.25;;
37535;SDS011;23379;51.554;6.736;2024-03-23T07:10:00;18.95;;;5.85;;
37535;SDS011;23379;51.554;6.736;2024-03-23T07:12:25;15.80;;;5.78;;
37535;SDS011;23379;51.554;6.736;2024-03-23T07:14:51;23.80;;;6.90;;
37535;SDS011;23379;51.554;6.736;2024-03-23T07:17:16;14.07;;;6.15;;
37535;SDS011;23379;51.554;6.736;2024-03-23T07:19:43;24.05;;;6.63;;
37535;SDS011;23379;51.554;6.736;2024-03-23T07:22:09;17.13;;;5.88;;
37535;SDS011;23379;51.554;6.736;2024-03-23T07:24:35;16.83;;;6.85;;
37535;SDS011;23379;51.554;6.736;2024-03-23T07:27:01;17.27;;;7.25;;
37535;SDS011;23379;51.554;6.736;2024-03-23T07:29:28;13.95;;;6.50;;
37535;SDS011;23379;51.554;6.736;2024-03-23T07:31:54;13.00;;;6.95;;
37535;SDS011;23379;51.554;6.736;2024-03-23T07:34:19;19.23;;;6.88;;
37535;SDS011;23379;51.554;6.736;2024-03-23T07:36:45;17.20;;;7.15;;
37535;SDS011;23379;51.554;6.736;2024-03-23T07:39:11;16.45;;;5.72;;
37535;SDS011;23379;51.554;6.736;2024-03-23T07:41:36;13.40;;;6.68;;
37535;SDS011;23379;51.554;6.736;2024-03-23T07:44:02;24.45;;;7.60;;
37535;SDS011;23379;51.554;6.736;2024-03-23T07:46:31;17.27;;;6.03;;
37535;SDS011;23379;51.554;6.736;2024-03-23T07:48:56;20.50;;;6.00;;
37535;SDS011;23379;51.554;6.736;2024-03-23T07:51:22;21.25;;;6.43;;
37535;SDS011;23379;51.554;6.736;2024-03-23T07:53:48;17.00;;;5.32;;
37535;SDS011;23379;51.554;6.736;2024-03-23T07:56:14;16.95;;;6.22;;
37535;SDS011;23379;51.554;6.736;2024-03-23T07:58:40;12.80;;;5.45;;
37535;SDS011;23379;51.554;6.736;2024-03-23T08:01:07;14.23;;;4.72;;
37535;SDS011;23379;51.554;6.736;2024-03-23T08:03:36;16.98;;;5.40;;
37535;SDS011;23379;51.554;6.736;2024-03-23T08:08:39;20.60;;;5.30;;
37535;SDS011;23379;51.554;6.736;2024-03-23T08:11:05;14.52;;;5.20;;
37535;SDS011;23379;51.554;6.736;2024-03-23T08:13:31;14.10;;;5.35;;
37535;SDS011;23379;51.554;6.736;2024-03-23T08:15:57;13.82;;;4.63;;
37535;SDS011;23379;51.554;6.736;2024-03-23T08:18:23;17.67;;;5.10;;
37535;SDS011;23379;51.554;6.736;2024-03-23T08:20:59;21.50;;;5.00;;
37535;SDS011;23379;51.554;6.736;2024-03-23T08:23:28;14.60;;;4.68;;
37535;SDS011;23379;51.554;6.736;2024-03-23T08:25:58;13.20;;;3.78;;
37535;SDS011;23379;51.554;6.736;2024-03-23T08:28:24;12.15;;;4.15;;
37535;SDS011;23379;51.554;6.736;2024-03-23T08:30:50;19.45;;;4.30;;
37535;SDS011;23379;51.554;6.736;2024-03-23T08:33:16;13.43;;;3.88;;
37535;SDS011;23379;51.554;6.736;2024-03-23T08:35:41;10.98;;;4.25;;
37535;SDS011;23379;51.554;6.736;2024-03-23T08:38:07;12.35;;;4.00;;
37535;SDS011;23379;51.554;6.736;2024-03-23T08:40:32;11.15;;;3.95;;
37535;SDS011;23379;51.554;6.736;2024-03-23T08:42:58;10.82;;;3.85;;
37535;SDS011;23379;51.554;6.736;2024-03-23T08:45:26;13.90;;;3.70;;
37535;SDS011;23379;51.554;6.736;2024-03-23T08:47:52;12.80;;;3.17;;
37535;SDS011;23379;51.554;6.736;2024-03-23T08:50:17;14.77;;;3.30;;
37535;SDS011;23379;51.554;6.736;2024-03-23T08:52:42;8.50;;;3.22;;
37535;SDS011;23379;51.554;6.736;2024-03-23T08:55:08;10.27;;;3.05;;
37535;SDS011;23379;51.554;6.736;2024-03-23T08:57:34;9.18;;;3.35;;
37535;SDS011;23379;51.554;6.736;2024-03-23T09:00:00;10.23;;;3.33;;
37535;SDS011;23379;51.554;6.736;2024-03-23T09:02:25;10.10;;;3.38;;
37535;SDS011;23379;51.554;6.736;2024-03-23T09:04:51;9.13;;;3.10;;
37535;SDS011;23379;51.554;6.736;2024-03-23T09:07:16;12.55;;;3.20;;
37535;SDS011;23379;51.554;6.736;2024-03-23T09:09:41;6.68;;;2.88;;
37535;SDS011;23379;51.554;6.736;2024-03-23T09:12:07;10.75;;;3.00;;
37535;SDS011;23379;51.554;6.736;2024-03-23T09:14:33;8.75;;;2.90;;
37535;SDS011;23379;51.554;6.736;2024-03-23T09:16:58;16.35;;;3.42;;
37535;SDS011;23379;51.554;6.736;2024-03-23T09:19:26;11.82;;;3.10;;
37535;SDS011;23379;51.554;6.736;2024-03-23T09:21:53;8.45;;;3.05;;
37535;SDS011;23379;51.554;6.736;2024-03-23T09:24:18;7.82;;;2.85;;
37535;SDS011;23379;51.554;6.736;2024-03-23T09:26:43;12.88;;;3.25;;
37535;SDS011;23379;51.554;6.736;2024-03-23T09:29:09;7.20;;;3.20;;
37535;SDS011;23379;51.554;6.736;2024-03-23T09:31:34;10.25;;;3.40;;
37535;SDS011;23379;51.554;6.736;2024-03-23T09:33:59;6.45;;;2.90;;
37535;SDS011;23379;51.554;6.736;2024-03-23T09:36:25;8.20;;;2.75;;
37535;SDS011;23379;51.554;6.736;2024-03-23T09:38:50;6.78;;;2.30;;
37535;SDS011;23379;51.554;6.736;2024-03-23T09:41:15;11.15;;;3.13;;
37535;SDS011;23379;51.554;6.736;2024-03-23T09:43:41;14.20;;;3.58;;
37535;SDS011;23379;51.554;6.736;2024-03-23T09:46:06;9.45;;;3.10;;
37535;SDS011;23379;51.554;6.736;2024-03-23T09:48:32;10.63;;;3.50;;
37535;SDS011;23379;51.554;6.736;2024-03-23T09:50:58;9.98;;;3.20;;
37535;SDS011;23379;51.554;6.736;2024-03-23T09:53:24;11.63;;;3.00;;
37535;SDS011;23379;51.554;6.736;2024-03-23T09:55:49;7.63;;;2.28;;
37535;SDS011;23379;51.554;6.736;2024-03-23T09:58:16;9.80;;;2.22;;
37535;SDS011;23379;51.554;6.736;2024-03-23T10:00:43;6.57;;;2.30;;
37535;SDS011;23379;51.554;6.736;2024-03-23T10:03:08;11.40;;;2.58;;
37535;SDS011;23379;51.554;6.736;2024-03-23T10:05:36;12.40;;;2.78;;
37535;SDS011;23379;51.554;6.736;2024-03-23T10:10:40;13.23;;;2.60;;
37535;SDS011;23379;51.554;6.736;2024-03-23T10:13:05;14.02;;;2.58;;
37535;SDS011;23379;51.554;6.736;2024-03-23T10:15:32;10.55;;;2.75;;
37535;SDS011;23379;51.554;6.736;2024-03-23T10:17:59;6.88;;;2.05;;
37535;SDS011;23379;51.554;6.736;2024-03-23T10:20:40;8.38;;;2.63;;
37535;SDS011;23379;51.554;6.736;2024-03-23T10:23:05;6.50;;;1.83;;
37535;SDS011;23379;51.554;6.736;2024-03-23T10:25:41;7.93;;;1.85;;
37535;SDS011;23379;51.554;6.736;2024-03-23T10:28:06;13.15;;;2.28;;
37535;SDS011;23379;51.554;6.736;2024-03-23T10:30:31;7.15;;;2.55;;
37535;SDS011;23379;51.554;6.736;2024-03-23T10:33:10;9.68;;;2.03;;
37535;SDS011;23379;51.554;6.736;2024-03-23T10:35:39;8.75;;;2.13;;
37535;SDS011;23379;51.554;6.736;2024-03-23T10:38:05;4.43;;;2.50;;
37535;SDS011;23379;51.554;6.736;2024-03-23T10:40:32;6.20;;;1.80;;
37535;SDS011;23379;51.554;6.736;2024-03-23T10:42:59;3.67;;;1.95;;
37535;SDS011;23379;51.554;6.736;2024-03-23T10:45:25;3.47;;;1.90;;
37535;SDS011;23379;51.554;6.736;2024-03-23T10:47:50;4.35;;;1.75;;
37535;SDS011;23379;51.554;6.736;2024-03-23T10:50:16;4.35;;;1.42;;
37535;SDS011;23379;51.554;6.736;2024-03-23T10:52:42;4.85;;;1.70;;
37535;SDS011;23379;51.554;6.736;2024-03-23T10:55:11;5.85;;;1.75;;
37535;SDS011;23379;51.554;6.736;2024-03-23T10:57:40;4.03;;;1.70;;
37535;SDS011;23379;51.554;6.736;2024-03-23T11:00:09;5.45;;;1.45;;
37535;SDS011;23379;51.554;6.736;2024-03-23T11:02:37;8.85;;;1.60;;
37535;SDS011;23379;51.554;6.736;2024-03-23T11:05:07;6.32;;;1.58;;
37535;SDS011;23379;51.554;6.736;2024-03-23T11:07:57;2.53;;;1.15;;
37535;SDS011;23379;51.554;6.736;2024-03-23T11:10:26;1.83;;;1.05;;
37535;SDS011;23379;51.554;6.736;2024-03-23T11:12:52;2.50;;;0.98;;
37535;SDS011;23379;51.554;6.736;2024-03-23T11:15:18;2.90;;;0.95;;
37535;SDS011;23379;51.554;6.736;2024-03-23T11:18:01;4.00;;;1.10;;
37535;SDS011;23379;51.554;6.736;2024-03-23T11:20:32;9.23;;;1.25;;
37535;SDS011;23379;51.554;6.736;2024-03-23T11:22:58;3.38;;;1.10;;
37535;SDS011;23379;51.554;6.736;2024-03-23T11:25:25;3.20;;;1.23;;
37535;SDS011;23379;51.554;6.736;2024-03-23T11:27:52;5.65;;;1.13;;
37535;SDS011;23379;51.554;6.736;2024-03-23T11:32:48;6.13;;;1.63;;
37535;SDS011;23379;51.554;6.736;2024-03-23T11:35:30;6.20;;;1.63;;
37535;SDS011;23379;51.554;6.736;2024-03-23T11:40:28;8.05;;;1.65;;
37535;SDS011;23379;51.554;6.736;2024-03-23T11:43:01;4.55;;;1.70;;
37535;SDS011;23379;51.554;6.736;2024-03-23T11:45:34;6.78;;;1.55;;
37535;SDS011;23379;51.554;6.736;2024-03-23T11:48:10;7.70;;;1.88;;
37535;SDS011;23379;51.554;6.736;2024-03-23T11:50:40;7.70;;;1.85;;
37535;SDS011;23379;51.554;6.736;2024-03-23T11:58:18;9.05;;;1.95;;
37535;SDS011;23379;51.554;6.736;2024-03-23T12:03:17;12.77;;;2.45;;
37535;SDS011;23379;51.554;6.736;2024-03-23T12:05:47;6.07;;;2.28;;
37535;SDS011;23379;51.554;6.736;2024-03-23T12:13:30;5.03;;;1.67;;
37535;SDS011;23379;51.554;6.736;2024-03-23T12:15:57;6.05;;;1.60;;
37535;SDS011;23379;51.554;6.736;2024-03-23T12:18:38;4.93;;;1.35;;
37535;SDS011;23379;51.554;6.736;2024-03-23T12:21:05;4.03;;;1.33;;
37535;SDS011;23379;51.554;6.736;2024-03-23T12:23:30;2.30;;;0.80;;
37535;SDS011;23379;51.554;6.736;2024-03-23T12:25:57;3.75;;;0.98;;
37535;SDS011;23379;51.554;6.736;2024-03-23T12:28:23;3.45;;;1.02;;
37535;SDS011;23379;51.554;6.736;2024-03-23T12:30:48;3.30;;;0.70;;
37535;SDS011;23379;51.554;6.736;2024-03-23T12:33:14;3.60;;;0.80;;
37535;SDS011;23379;51.554;6.736;2024-03-23T12:35:39;3.05;;;0.85;;
37535;SDS011;23379;51.554;6.736;2024-03-23T12:38:04;3.28;;;1.27;;
37535;SDS011;23379;51.554;6.736;2024-03-23T12:40:30;6.65;;;1.40;;
37535;SDS011;23379;51.554;6.736;2024-03-23T12:42:55;2.55;;;1.30;;
37535;SDS011;23379;51.554;6.736;2024-03-23T12:45:23;7.43;;;1.75;;
37535;SDS011;23379;51.554;6.736;2024-03-23T12:47:49;5.00;;;1.67;;
37535;SDS011;23379;51.554;6.736;2024-03-23T12:50:14;3.17;;;2.08;;
37535;SDS011;23379;51.554;6.736;2024-03-23T12:52:39;9.00;;;2.30;;
37535;SDS011;23379;51.554;6.736;2024-03-23T12:55:05;3.53;;;2.22;;
37535;SDS011;23379;51.554;6.736;2024-03-23T12:57:30;8.45;;;2.42;;
37535;SDS011;23379;51.554;6.736;2024-03-23T12:59:56;6.47;;;2.45;;
37535;SDS011;23379;51.554;6.736;2024-03-23T13:02:22;8.25;;;2.67;;
37535;SDS011;23379;51.554;6.736;2024-03-23T13:04:57;4.78;;;2.25;;
37535;SDS011;23379;51.554;6.736;2024-03-23T13:07:23;6.90;;;2.58;;
37535;SDS011;23379;51.554;6.736;2024-03-23T13:09:52;10.63;;;2.58;;
37535;SDS011;23379;51.554;6.736;2024-03-23T13:12:18;5.00;;;3.08;;
37535;SDS011;23379;51.554;6.736;2024-03-23T13:14:45;5.78;;;2.38;;
37535;SDS011;23379;51.554;6.736;2024-03-23T13:17:11;6.10;;;2.25;;
37535;SDS011;23379;51.554;6.736;2024-03-23T13:19:36;5.38;;;2.72;;
37535;SDS011;23379;51.554;6.736;2024-03-23T13:22:02;7.68;;;2.33;;
37535;SDS011;23379;51.554;6.736;2024-03-23T13:24:29;7.20;;;2.35;;
37535;SDS011;23379;51.554;6.736;2024-03-23T13:26:55;4.97;;;1.88;;
37535;SDS011;23379;51.554;6.736;2024-03-23T13:29:21;6.07;;;2.38;;
37535;SDS011;23379;51.554;6.736;2024-03-23T13:31:47;5.80;;;2.50;;
37535;SDS011;23379;51.554;6.736;2024-03-23T13:34:13;4.93;;;2.10;;
37535;SDS011;23379;51.554;6.736;2024-03-23T13:36:40;3.65;;;2.05;;
37535;SDS011;23379;51.554;6.736;2024-03-23T13:39:09;3.08;;;1.85;;
37535;SDS011;23379;51.554;6.736;2024-03-23T13:41:38;4.30;;;1.30;;
37535;SDS011;23379;51.554;6.736;2024-03-23T13:44:05;4.22;;;1.27;;
37535;SDS011;23379;51.554;6.736;2024-03-23T13:46:31;3.45;;;0.98;;
37535;SDS011;23379;51.554;6.736;2024-03-23T13:48:57;3.88;;;1.17;;
37535;SDS011;23379;51.554;6.736;2024-03-23T13:51:23;3.72;;;0.90;;
37535;SDS011;23379;51.554;6.736;2024-03-23T13:53:49;4.82;;;1.27;;
37535;SDS011;23379;51.554;6.736;2024-03-23T13:56:15;6.97;;;1.20;;
37535;SDS011;23379;51.554;6.736;2024-03-23T13:58:40;2.75;;;1.05;;
37535;SDS011;23379;51.554;6.736;2024-03-23T14:01:10;4.00;;;1.27;;
37535;SDS011;23379;51.554;6.736;2024-03-23T14:03:36;3.90;;;1.15;;
37535;SDS011;23379;51.554;6.736;2024-03-23T14:06:01;3.78;;;1.40;;
37535;SDS011;23379;51.554;6.736;2024-03-23T14:08:28;3.97;;;1.52;;
37535;SDS011;23379;51.554;6.736;2024-03-23T14:10:53;3.03;;;1.10;;
37535;SDS011;23379;51.554;6.736;2024-03-23T14:13:19;4.38;;;1.90;;
37535;SDS011;23379;51.554;6.736;2024-03-23T14:15:45;7.35;;;1.52;;
37535;SDS011;23379;51.554;6.736;2024-03-23T14:18:10;5.82;;;1.33;;
37535;SDS011;23379;51.554;6.736;2024-03-23T14:20:35;5.15;;;1.60;;
37535;SDS011;23379;51.554;6.736;2024-03-23T14:23:01;3.25;;;1.35;;
37535;SDS011;23379;51.554;6.736;2024-03-23T14:25:26;4.90;;;1.67;;
37535;SDS011;23379;51.554;6.736;2024-03-23T14:27:54;4.18;;;1.67;;
37535;SDS011;23379;51.554;6.736;2024-03-23T14:30:19;4.15;;;1.60;;
37535;SDS011;23379;51.554;6.736;2024-03-23T14:32:45;4.95;;;1.30;;
37535;SDS011;23379;51.554;6.736;2024-03-23T14:35:10;3.35;;;1.35;;
37535;SDS011;23379;51.554;6.736;2024-03-23T14:37:37;3.38;;;1.17;;
37535;SDS011;23379;51.554;6.736;2024-03-23T14:40:03;5.18;;;1.67;;
37535;SDS011;23379;51.554;6.736;2024-03-23T14:42:29;4.80;;;1.52;;
37535;SDS011;23379;51.554;6.736;2024-03-23T14:44:56;5.40;;;1.77;;
37535;SDS011;23379;51.554;6.736;2024-03-23T14:47:21;6.03;;;1.65;;
37535;SDS011;23379;51.554;6.736;2024-03-23T14:49:46;3.85;;;1.77;;
37535;SDS011;23379;51.554;6.736;2024-03-23T14:52:15;11.07;;;2.10;;
37535;SDS011;23379;51.554;6.736;2024-03-23T14:54:41;5.15;;;2.13;;
37535;SDS011;23379;51.554;6.736;2024-03-23T14:57:06;6.32;;;2.03;;
37535;SDS011;23379;51.554;6.736;2024-03-23T14:59:34;3.42;;;1.75;;
37535;SDS011;23379;51.554;6.736;2024-03-23T15:01:59;8.05;;;2.17;;
37535;SDS011;23379;51.554;6.736;2024-03-23T15:04:25;5.72;;;2.28;;
37535;SDS011;23379;51.554;6.736;2024-03-23T15:06:50;5.70;;;1.67;;
37535;SDS011;23379;51.554;6.736;2024-03-23T15:09:15;5.07;;;1.73;;
37535;SDS011;23379;51.554;6.736;2024-03-23T15:11:41;6.78;;;1.73;;
37535;SDS011;23379;51.554;6.736;2024-03-23T15:14:06;4.85;;;1.75;;
37535;SDS011;23379;51.554;6.736;2024-03-23T15:16:32;2.78;;;1.45;;
37535;SDS011;23379;51.554;6.736;2024-03-23T15:18:58;5.45;;;2.08;;
37535;SDS011;23379;51.554;6.736;2024-03-23T15:21:23;9.23;;;2.15;;
37535;SDS011;23379;51.554;6.736;2024-03-23T15:23:49;5.60;;;2.22;;
37535;SDS011;23379;51.554;6.736;2024-03-23T15:26:14;4.97;;;1.70;;
37535;SDS011;23379;51.554;6.736;2024-03-23T15:28:41;4.03;;;1.92;;
37535;SDS011;23379;51.554;6.736;2024-03-23T15:31:08;3.42;;;2.00;;
37535;SDS011;23379;51.554;6.736;2024-03-23T15:33:36;6.28;;;2.15;;
37535;SDS011;23379;51.554;6.736;2024-03-23T15:36:02;5.63;;;2.22;;
37535;SDS011;23379;51.554;6.736;2024-03-23T15:38:28;5.15;;;2.13;;
37535;SDS011;23379;51.554;6.736;2024-03-23T15:40:56;8.35;;;2.38;;
37535;SDS011;23379;51.554;6.736;2024-03-23T15:43:21;7.47;;;2.10;;
37535;SDS011;23379;51.554;6.736;2024-03-23T15:45:53;5.72;;;2.03;;
37535;SDS011;23379;51.554;6.736;2024-03-23T15:48:24;6.00;;;2.03;;
37535;SDS011;23379;51.554;6.736;2024-03-23T15:50:52;6.43;;;2.22;;
37535;SDS011;23379;51.554;6.736;2024-03-23T15:53:21;9.05;;;2.17;;